createdAt,value
2018-02-14T00:02:07.064Z,6.93
2018-02-14T00:04:34.551Z,6.87
2018-02-14T00:07:02.823Z,7.17
2018-02-14T00:09:30.303Z,6.90
2018-02-14T00:11:58.557Z,6.33
2018-02-14T00:14:26.044Z,6.30
2018-02-14T00:16:53.530Z,6.50
2018-02-14T00:19:21.022Z,7.07
2018-02-14T00:21:48.502Z,7.23
2018-02-14T00:24:15.997Z,6.90
2018-02-14T00:26:43.471Z,6.97
2018-02-14T00:29:10.971Z,6.87
2018-02-14T00:31:38.446Z,7.03
2018-02-14T00:34:05.938Z,7.07
2018-02-14T00:36:33.406Z,6.57
2018-02-14T00:39:01.663Z,6.30
2018-02-14T00:41:29.146Z,7.20
2018-02-14T00:43:56.647Z,8.33
2018-02-14T00:46:24.118Z,7.63
2018-02-14T00:48:51.607Z,7.67
2018-02-14T00:51:19.079Z,7.30
2018-02-14T00:53:46.579Z,7.83
2018-02-14T00:56:14.064Z,7.03
2018-02-14T00:58:41.563Z,7.60
2018-02-14T01:01:09.035Z,7.00
2018-02-14T01:03:36.527Z,7.60
2018-02-14T01:06:04.004Z,7.60
2018-02-14T01:08:31.514Z,7.60
2018-02-14T01:10:58.995Z,7.07
2018-02-14T01:13:27.262Z,6.40
2018-02-14T01:15:54.736Z,5.90
2018-02-14T01:18:22.230Z,7.03
2018-02-14T01:20:50.483Z,7.80
2018-02-14T01:23:17.983Z,7.10
2018-02-14T01:25:46.232Z,6.90
2018-02-14T01:28:13.732Z,6.83
2018-02-14T01:30:41.214Z,7.23
2018-02-14T01:33:09.475Z,6.37
2018-02-14T01:35:36.954Z,8.50
2018-02-14T01:38:04.447Z,7.00
2018-02-14T01:40:32.690Z,8.20
2018-02-14T01:43:00.187Z,7.87
2018-02-14T01:45:27.667Z,6.77
2018-02-14T01:47:55.911Z,6.90
2018-02-14T01:50:29.374Z,7.60
2018-02-14T01:52:56.850Z,6.80
2018-02-14T01:55:24.344Z,7.00
2018-02-14T01:57:51.824Z,8.13
2018-02-14T02:00:19.318Z,7.77
2018-02-14T02:02:46.801Z,6.70
2018-02-14T02:05:14.292Z,8.10
2018-02-14T02:07:41.775Z,7.70
2018-02-14T02:10:09.279Z,9.00
2018-02-14T02:12:36.760Z,8.27
2018-02-14T02:15:04.266Z,8.17
2018-02-14T02:17:32.520Z,8.93
2018-02-14T02:20:00.017Z,8.50
2018-02-14T02:22:28.281Z,8.20
2018-02-14T02:24:55.775Z,8.13
2018-02-14T02:27:23.252Z,9.57
2018-02-14T02:29:51.511Z,9.07
2018-02-14T02:32:18.991Z,9.13
2018-02-14T02:34:46.492Z,9.17
2018-02-14T02:37:14.735Z,8.27
2018-02-14T02:39:54.038Z,8.03
2018-02-14T02:42:21.515Z,9.33
2018-02-14T02:44:49.007Z,8.87
2018-02-14T02:47:16.484Z,8.60
2018-02-14T02:49:43.984Z,8.60
2018-02-14T02:52:12.235Z,8.87
2018-02-14T02:54:39.725Z,9.67
2018-02-14T02:57:07.208Z,9.93
2018-02-14T02:59:34.707Z,8.70
2018-02-14T03:02:02.190Z,8.70
2018-02-14T03:04:29.698Z,9.43
2018-02-14T03:06:57.178Z,8.73
2018-02-14T03:09:24.896Z,8.63
2018-02-14T03:11:52.375Z,9.03
2018-02-14T03:14:19.874Z,9.63
2018-02-14T03:16:47.346Z,9.40
2018-02-14T03:19:14.847Z,9.73
2018-02-14T03:21:42.331Z,9.43
2018-02-14T03:24:10.594Z,9.70
2018-02-14T03:26:38.079Z,10.27
2018-02-14T03:29:05.580Z,9.47
2018-02-14T03:31:33.064Z,10.13
2018-02-14T03:34:00.571Z,9.60
2018-02-14T03:36:28.048Z,8.60
2018-02-14T03:38:55.551Z,9.00
2018-02-14T03:41:23.047Z,9.80
2018-02-14T03:43:50.542Z,8.90
2018-02-14T03:46:18.022Z,9.10
2018-02-14T03:48:45.527Z,10.90
2018-02-14T03:51:13.775Z,9.50
2018-02-14T03:53:41.284Z,9.57
2018-02-14T03:56:08.774Z,10.50
2018-02-14T03:58:36.287Z,10.00
2018-02-14T04:01:03.771Z,10.97
2018-02-14T04:03:31.932Z,10.40
2018-02-14T04:05:59.434Z,10.00
2018-02-14T04:08:26.923Z,11.90
2018-02-14T04:10:55.215Z,10.93
2018-02-14T04:13:23.460Z,11.17
2018-02-14T04:15:50.971Z,10.87
2018-02-14T04:18:19.231Z,10.70
2018-02-14T04:20:46.744Z,10.50
2018-02-14T04:23:14.234Z,10.97
2018-02-14T04:25:41.744Z,10.97
2018-02-14T04:28:12.843Z,10.37
2018-02-14T04:30:40.338Z,9.77
2018-02-14T04:33:07.830Z,11.60
2018-02-14T04:35:35.345Z,10.63
2018-02-14T04:38:02.841Z,10.50
2018-02-14T04:40:30.357Z,10.00
2018-02-14T04:42:58.619Z,11.30
2018-02-14T04:45:26.119Z,12.13
2018-02-14T04:47:54.391Z,10.50
2018-02-14T04:50:21.943Z,10.43
2018-02-14T04:52:49.429Z,10.20
2018-02-14T04:55:16.935Z,10.40
2018-02-14T04:57:44.442Z,10.30
2018-02-14T05:00:11.957Z,10.53
2018-02-14T05:02:39.438Z,10.47
2018-02-14T05:05:07.710Z,10.10
2018-02-14T05:07:35.195Z,10.60
2018-02-14T05:10:03.466Z,11.70
2018-02-14T05:12:30.951Z,11.23
2018-02-14T05:14:59.214Z,10.97
2018-02-14T05:17:26.697Z,10.83
2018-02-14T05:19:54.207Z,11.93
2018-02-14T05:22:21.771Z,11.60
2018-02-14T05:24:49.283Z,11.30
2018-02-14T05:27:16.779Z,10.80
2018-02-14T05:29:44.283Z,11.80
2018-02-14T05:32:11.774Z,12.00
2018-02-14T05:34:39.272Z,13.57
2018-02-14T05:37:06.768Z,12.20
2018-02-14T05:39:34.270Z,10.80
2018-02-14T05:42:01.759Z,12.17
2018-02-14T05:44:29.262Z,12.77
2018-02-14T05:46:56.751Z,11.47
2018-02-14T05:49:25.015Z,10.03
2018-02-14T05:51:52.506Z,10.30
2018-02-14T05:54:20.778Z,10.80
2018-02-14T05:56:48.255Z,11.20
2018-02-14T05:59:15.751Z,10.47
2018-02-14T06:01:43.996Z,11.20
2018-02-14T06:04:11.515Z,10.80
2018-02-14T06:06:38.994Z,10.73
2018-02-14T06:09:06.481Z,10.37
2018-02-14T06:11:33.984Z,9.80
2018-02-14T06:14:01.476Z,10.33
2018-02-14T06:16:29.757Z,11.47
2018-02-14T06:18:57.251Z,9.77
2018-02-14T06:21:24.763Z,10.90
2018-02-14T06:23:52.258Z,10.40
2018-02-14T06:26:19.760Z,11.73
2018-02-14T06:28:47.251Z,10.23
2018-02-14T06:31:14.766Z,11.10
2018-02-14T06:33:42.259Z,9.90
2018-02-14T06:36:10.576Z,10.80
2018-02-14T06:38:38.795Z,11.50
2018-02-14T06:41:06.290Z,10.80
2018-02-14T06:43:33.768Z,9.93
2018-02-14T06:46:01.297Z,10.87
2018-02-14T06:48:28.771Z,11.40
2018-02-14T06:50:56.279Z,11.20
2018-02-14T06:53:24.534Z,11.90
2018-02-14T06:55:52.035Z,11.33
2018-02-14T06:58:19.515Z,12.50
2018-02-14T07:00:47.014Z,12.60
2018-02-14T07:03:14.491Z,13.73
2018-02-14T07:05:42.013Z,13.57
2018-02-14T07:08:09.504Z,12.20
2018-02-14T07:10:37.010Z,13.03
2018-02-14T07:13:04.496Z,13.20
2018-02-14T07:15:32.003Z,13.57
2018-02-14T07:18:00.271Z,12.73
2018-02-14T07:20:27.767Z,11.90
2018-02-14T07:22:56.011Z,12.43
2018-02-14T07:25:23.514Z,11.27
2018-02-14T07:27:50.995Z,12.13
2018-02-14T07:30:19.271Z,16.93
2018-02-14T07:32:46.754Z,15.30
2018-02-14T07:35:15.022Z,11.73
2018-02-14T07:37:42.512Z,11.50
2018-02-14T07:40:10.776Z,11.50
2018-02-14T07:42:38.256Z,12.07
2018-02-14T07:45:05.765Z,12.43
2018-02-14T07:47:33.251Z,13.63
2018-02-14T07:50:00.734Z,12.20
2018-02-14T07:52:28.251Z,13.93
2018-02-14T07:54:56.499Z,11.27
2018-02-14T07:57:24.001Z,11.60
2018-02-14T07:59:52.252Z,10.30
2018-02-14T08:02:19.759Z,11.90
2018-02-14T08:04:47.235Z,11.50
2018-02-14T08:07:15.499Z,11.47
2018-02-14T08:09:42.977Z,10.33
2018-02-14T08:12:10.475Z,10.63
2018-02-14T08:14:37.992Z,10.77
2018-02-14T08:17:05.505Z,10.60
2018-02-14T08:19:32.957Z,11.97
2018-02-14T08:22:00.463Z,11.50
2018-02-14T08:24:27.951Z,11.87
2018-02-14T08:26:55.447Z,10.73
2018-02-14T08:29:22.928Z,10.73
2018-02-14T08:31:50.425Z,11.57
2018-02-14T08:34:18.698Z,12.37
2018-02-14T08:36:46.177Z,11.43
2018-02-14T08:39:13.699Z,20.13
2018-02-14T08:41:41.171Z,11.60
2018-02-14T08:44:08.649Z,10.67
2018-02-14T08:46:36.154Z,12.40
2018-02-14T08:49:03.643Z,13.53
2018-02-14T08:51:31.150Z,11.40
2018-02-14T08:53:58.691Z,11.00
2018-02-14T08:56:26.182Z,9.77
2018-02-14T08:58:53.654Z,11.60
2018-02-14T09:01:21.154Z,11.87
2018-02-14T09:03:48.639Z,12.87
2018-02-14T09:06:16.147Z,12.03
2018-02-14T09:08:43.635Z,10.77
2018-02-14T09:11:11.131Z,12.70
2018-02-14T09:13:38.618Z,10.90
2018-02-14T09:16:06.114Z,11.90
2018-02-14T09:18:33.599Z,11.37
2018-02-14T09:21:01.094Z,10.47
2018-02-14T09:23:28.580Z,10.30
2018-02-14T09:25:56.083Z,11.60
2018-02-14T09:28:24.327Z,11.10
2018-02-14T09:30:51.835Z,10.60
2018-02-14T09:33:19.318Z,10.60
2018-02-14T09:35:47.578Z,13.50
2018-02-14T09:38:15.060Z,11.70
2018-02-14T09:40:42.551Z,9.97
2018-02-14T09:43:10.034Z,9.93
2018-02-14T09:45:37.535Z,10.87
2018-02-14T09:48:05.010Z,10.27
2018-02-14T09:50:32.485Z,9.43
2018-02-14T09:52:59.979Z,10.47
2018-02-14T09:55:27.454Z,10.83
2018-02-14T09:57:55.719Z,10.10
2018-02-14T10:00:23.195Z,11.13
2018-02-14T10:02:50.687Z,11.57
2018-02-14T10:05:18.932Z,11.40
2018-02-14T10:07:46.438Z,10.53
2018-02-14T10:10:13.922Z,10.30
2018-02-14T10:12:41.434Z,10.80
2018-02-14T10:15:08.910Z,10.90
2018-02-14T10:17:36.410Z,10.70
2018-02-14T10:20:03.887Z,11.13
2018-02-14T10:22:32.186Z,11.10
2018-02-14T10:24:59.643Z,11.63
2018-02-14T10:27:27.143Z,9.50
2018-02-14T10:29:54.631Z,11.00
2018-02-14T10:32:22.122Z,10.70
2018-02-14T10:34:49.607Z,10.33
2018-02-14T10:37:17.111Z,10.43
2018-02-14T10:39:45.349Z,9.90
2018-02-14T10:42:12.853Z,11.27
2018-02-14T10:44:40.330Z,11.30
2018-02-14T10:47:07.828Z,10.60
2018-02-14T10:49:35.307Z,10.07
2018-02-14T10:52:02.807Z,10.90
2018-02-14T10:54:30.291Z,10.80
2018-02-14T10:56:57.798Z,10.10
2018-02-14T10:59:25.284Z,10.07
2018-02-14T11:01:58.478Z,10.13
2018-02-14T11:04:25.954Z,9.27
2018-02-14T11:06:53.454Z,9.17
2018-02-14T11:09:20.932Z,9.77
2018-02-14T11:11:48.430Z,9.30
2018-02-14T11:14:16.678Z,10.37
2018-02-14T11:16:44.184Z,9.40
2018-02-14T11:19:12.426Z,9.70
2018-02-14T11:21:39.927Z,9.00
2018-02-14T11:24:07.407Z,10.20
2018-02-14T11:26:34.902Z,9.63
2018-02-14T11:29:03.148Z,8.50
2018-02-14T11:31:30.657Z,10.33
2018-02-14T11:33:58.911Z,12.37
2018-02-14T11:36:26.420Z,10.60
2018-02-14T11:38:53.911Z,9.30
2018-02-14T11:41:21.411Z,9.63
2018-02-14T11:43:48.897Z,10.30
2018-02-14T11:46:16.422Z,9.77
2018-02-14T11:48:43.903Z,9.03
2018-02-14T11:51:11.389Z,9.07
2018-02-14T11:53:38.880Z,9.27
2018-02-14T11:56:06.346Z,8.83
2018-02-14T11:58:33.846Z,9.43
2018-02-14T12:01:02.092Z,9.50
2018-02-14T12:03:29.587Z,9.67
2018-02-14T12:05:57.067Z,10.20
2018-02-14T12:08:25.334Z,8.80
2018-02-14T12:10:52.814Z,9.07
2018-02-14T12:13:20.312Z,9.00
2018-02-14T12:15:47.781Z,9.27
2018-02-14T12:18:15.274Z,8.27
2018-02-14T12:20:42.754Z,8.73
2018-02-14T12:23:10.254Z,8.30
2018-02-14T12:25:37.732Z,13.90
2018-02-14T12:28:05.235Z,8.87
2018-02-14T12:30:32.716Z,8.37
2018-02-14T12:33:00.978Z,7.77
2018-02-14T12:35:29.222Z,7.93
2018-02-14T12:37:56.714Z,7.73
2018-02-14T12:40:24.191Z,8.03
2018-02-14T12:42:51.687Z,8.50
2018-02-14T12:45:19.159Z,7.47
2018-02-14T12:47:46.659Z,8.77
2018-02-14T12:50:14.131Z,8.10
2018-02-14T12:52:41.623Z,8.27
2018-02-14T12:55:09.106Z,21.37
2018-02-14T12:57:36.607Z,9.90
2018-02-14T13:00:04.083Z,10.60
2018-02-14T13:02:31.584Z,44.93
2018-02-14T13:04:59.069Z,35.70
2018-02-14T13:07:26.575Z,11.30
2018-02-14T13:09:54.817Z,7.93
2018-02-14T13:12:22.310Z,8.20
2018-02-14T13:14:49.788Z,9.73
2018-02-14T13:17:17.282Z,7.80
2018-02-14T13:19:44.762Z,10.20
2018-02-14T13:22:12.263Z,7.10
2018-02-14T13:24:39.747Z,7.30
2018-02-14T13:27:07.238Z,8.50
2018-02-14T13:29:35.487Z,7.27
2018-02-14T13:32:02.992Z,10.10
2018-02-14T13:34:30.466Z,6.70
2018-02-14T13:36:57.971Z,7.40
2018-02-14T13:39:25.447Z,12.70
2018-02-14T13:41:52.939Z,6.90
2018-02-14T13:44:20.415Z,5.43
2018-02-14T13:46:47.889Z,6.47
2018-02-14T13:49:15.400Z,10.10
2018-02-14T13:51:42.874Z,6.80
2018-02-14T13:54:11.136Z,16.10
2018-02-14T13:56:38.614Z,6.80
2018-02-14T13:59:06.883Z,7.20
2018-02-14T14:01:34.364Z,23.40
2018-02-14T14:04:01.865Z,11.30
2018-02-14T14:06:29.349Z,15.97
2018-02-14T14:08:56.846Z,7.20
2018-02-14T14:11:24.315Z,7.17
2018-02-14T14:13:51.803Z,7.20
2018-02-14T14:16:19.279Z,10.93
2018-02-14T14:18:46.779Z,8.57
2018-02-14T14:21:15.015Z,6.87
2018-02-14T14:23:42.515Z,7.53
2018-02-14T14:26:09.986Z,6.80
2018-02-14T14:28:37.488Z,6.50
2018-02-14T14:31:04.954Z,6.67
2018-02-14T14:33:32.464Z,5.40
2018-02-14T14:35:59.938Z,6.40
2018-02-14T14:38:27.434Z,6.27
2018-02-14T14:40:54.908Z,6.20
2018-02-14T14:43:23.207Z,6.13
2018-02-14T14:45:50.659Z,6.50
2018-02-14T14:48:18.163Z,7.43
2018-02-14T14:50:45.642Z,5.67
2018-02-14T14:53:13.142Z,25.27
2018-02-14T14:55:40.618Z,12.73
2018-02-14T14:58:08.112Z,10.20
2018-02-14T15:00:35.592Z,12.73
2018-02-14T15:03:03.846Z,6.20
2018-02-14T15:05:31.337Z,6.07
2018-02-14T15:07:58.836Z,14.77
2018-02-14T15:10:26.321Z,10.53
2018-02-14T15:12:53.871Z,6.53
2018-02-14T15:15:22.111Z,6.83
2018-02-14T15:17:49.598Z,6.77
2018-02-14T15:20:18.683Z,7.57
2018-02-14T15:22:46.190Z,7.23
2018-02-14T15:25:14.491Z,7.63
2018-02-14T15:27:42.083Z,14.10
2018-02-14T15:30:09.570Z,8.07
2018-02-14T15:32:37.071Z,6.63
2018-02-14T15:35:04.547Z,6.60
2018-02-14T15:37:32.040Z,7.20
2018-02-14T15:40:00.293Z,7.87
2018-02-14T15:42:27.786Z,7.03
2018-02-14T15:44:55.267Z,6.57
2018-02-14T15:47:23.530Z,7.07
2018-02-14T15:49:51.012Z,6.70
2018-02-14T15:52:18.490Z,6.03
2018-02-14T15:54:46.759Z,9.20
2018-02-14T15:57:14.259Z,10.03
2018-02-14T15:59:42.535Z,6.33
2018-02-14T16:02:10.831Z,6.90
2018-02-14T16:04:38.355Z,7.23
2018-02-14T16:07:05.831Z,7.87
2018-02-14T16:09:33.323Z,9.17
2018-02-14T16:12:00.808Z,10.67
2018-02-14T16:14:29.128Z,13.80
2018-02-14T16:16:57.359Z,13.07
2018-02-14T16:19:24.882Z,11.80
2018-02-14T16:21:52.374Z,12.20
2018-02-14T16:24:19.883Z,10.93
2018-02-14T16:26:47.372Z,11.67
2018-02-14T16:29:15.643Z,11.37
2018-02-14T16:31:43.133Z,12.80
2018-02-14T16:34:11.415Z,13.07
2018-02-14T16:36:39.659Z,10.63
2018-02-14T16:39:07.167Z,11.40
2018-02-14T16:41:35.430Z,12.10
2018-02-14T16:44:02.931Z,11.27
2018-02-14T16:46:31.188Z,12.00
2018-02-14T16:48:58.694Z,10.97
2018-02-14T16:51:26.951Z,10.97
2018-02-14T16:53:54.450Z,9.60
2018-02-14T16:56:22.700Z,10.10
2018-02-14T16:58:50.217Z,11.53
2018-02-14T17:01:18.480Z,11.03
2018-02-14T17:03:45.990Z,11.13
2018-02-14T17:06:13.483Z,11.00
2018-02-14T17:08:40.994Z,10.00
2018-02-14T17:11:08.471Z,10.67
2018-02-14T17:13:36.731Z,9.47
2018-02-14T17:16:04.211Z,10.17
2018-02-14T17:18:31.714Z,10.07
2018-02-14T17:20:59.971Z,10.03
2018-02-14T17:23:27.474Z,10.33
2018-02-14T17:25:55.727Z,10.57
2018-02-14T17:28:23.235Z,10.60
2018-02-14T17:30:51.483Z,10.90
2018-02-14T17:33:19.012Z,11.00
2018-02-14T17:35:46.503Z,11.37
2018-02-14T17:38:14.004Z,12.27
2018-02-14T17:40:41.490Z,12.27
2018-02-14T17:43:09.761Z,11.17
2018-02-14T17:45:37.271Z,12.23
2018-02-14T17:48:04.755Z,13.07
2018-02-14T17:50:32.303Z,11.70
2018-02-14T17:52:59.811Z,11.07
2018-02-14T17:55:27.361Z,11.53
2018-02-14T17:57:54.850Z,12.30
2018-02-14T18:00:22.386Z,12.10
2018-02-14T18:02:50.635Z,12.20
2018-02-14T18:05:18.139Z,12.23
2018-02-14T18:07:46.387Z,11.43
2018-02-14T18:10:13.905Z,14.27
2018-02-14T18:12:41.394Z,13.77
2018-02-14T18:15:08.968Z,12.97
2018-02-14T18:17:36.458Z,12.03
2018-02-14T18:20:03.963Z,11.40
2018-02-14T18:22:31.445Z,13.13
2018-02-14T18:24:59.718Z,12.63
2018-02-14T18:27:27.986Z,12.50
2018-02-14T18:29:55.525Z,12.80
2018-02-14T18:32:23.020Z,13.33
2018-02-14T18:34:50.547Z,13.73
2018-02-14T18:37:18.035Z,14.07
2018-02-14T18:39:45.692Z,13.03
2018-02-14T18:42:13.243Z,12.90
2018-02-14T18:44:41.503Z,12.67
2018-02-14T18:47:09.013Z,14.70
2018-02-14T18:49:37.262Z,13.80
2018-02-14T18:52:04.762Z,13.37
2018-02-14T18:54:33.014Z,23.53
2018-02-14T18:57:00.547Z,25.47
2018-02-14T18:59:28.037Z,16.20
2018-02-14T19:01:55.543Z,14.03
2018-02-14T19:04:23.038Z,14.13
2018-02-14T19:06:51.306Z,14.83
2018-02-14T19:09:18.824Z,14.43
2018-02-14T19:11:46.324Z,14.90
2018-02-14T19:14:13.834Z,13.97
2018-02-14T19:16:42.106Z,14.30
2018-02-14T19:19:10.377Z,14.37
2018-02-14T19:21:37.872Z,15.57
2018-02-14T19:24:06.124Z,16.90
2018-02-14T19:26:33.619Z,15.63
2018-02-14T19:29:01.129Z,15.57
2018-02-14T19:31:28.619Z,16.57
2018-02-14T19:33:56.126Z,21.27
2018-02-14T19:36:23.610Z,24.20
2018-02-14T19:38:51.110Z,15.50
2018-02-14T19:41:18.595Z,13.50
2018-02-14T19:43:46.102Z,14.53
2018-02-14T19:46:13.592Z,14.43
2018-02-14T19:48:41.100Z,13.70
2018-02-14T19:51:08.586Z,14.47
2018-02-14T19:53:36.090Z,13.37
2018-02-14T19:56:03.575Z,15.20
2018-02-14T19:58:31.854Z,14.03
2018-02-14T20:00:59.335Z,14.13
2018-02-14T20:03:27.603Z,13.80
2018-02-14T20:05:55.083Z,14.77
2018-02-14T20:08:22.635Z,14.23
2018-02-14T20:10:50.857Z,14.60
2018-02-14T20:13:19.171Z,13.23
2018-02-14T20:15:47.390Z,15.00
2018-02-14T20:18:14.895Z,13.03
2018-02-14T20:20:43.148Z,13.90
2018-02-14T20:23:10.668Z,14.30
2018-02-14T20:25:38.146Z,13.67
2018-02-14T20:28:05.644Z,13.47
2018-02-14T20:30:33.126Z,13.50
2018-02-14T20:33:00.632Z,13.40
2018-02-14T20:35:28.114Z,14.13
2018-02-14T20:37:56.380Z,14.50
2018-02-14T20:40:23.859Z,16.30
2018-02-14T20:42:51.368Z,15.10
2018-02-14T20:45:18.864Z,15.67
2018-02-14T20:47:46.351Z,14.50
2018-02-14T20:50:13.852Z,14.10
2018-02-14T20:52:42.110Z,14.87
2018-02-14T20:55:09.616Z,14.57
2018-02-14T20:57:37.103Z,15.80
2018-02-14T21:00:04.604Z,15.30
2018-02-14T21:02:32.098Z,15.20
2018-02-14T21:04:59.616Z,13.23
2018-02-14T21:07:27.103Z,13.27
2018-02-14T21:09:54.620Z,14.53
2018-02-14T21:12:22.167Z,14.10
2018-02-14T21:14:49.675Z,14.90
2018-02-14T21:17:17.162Z,13.63
2018-02-14T21:19:44.671Z,13.97
2018-02-14T21:22:12.170Z,14.13
2018-02-14T21:24:39.679Z,13.97
2018-02-14T21:27:07.159Z,14.27
2018-02-14T21:29:34.664Z,15.07
2018-02-14T21:32:02.180Z,13.97
2018-02-14T21:34:30.461Z,15.30
2018-02-14T21:36:57.947Z,14.50
2018-02-14T21:39:25.454Z,14.20
2018-02-14T21:41:52.942Z,15.27
2018-02-14T21:44:20.445Z,14.33
2018-02-14T21:46:47.934Z,15.83
2018-02-14T21:49:15.448Z,15.53
2018-02-14T21:51:42.923Z,18.93
2018-02-14T21:54:10.427Z,15.53
2018-02-14T21:56:37.920Z,15.87
2018-02-14T21:59:05.418Z,16.73
2018-02-14T22:01:32.908Z,16.40
2018-02-14T22:04:00.411Z,16.07
2018-02-14T22:06:27.895Z,16.67
2018-02-14T22:08:55.402Z,16.67
2018-02-14T22:11:22.891Z,16.90
2018-02-14T22:13:50.396Z,17.23
2018-02-14T22:16:17.891Z,16.43
2018-02-14T22:18:45.399Z,18.70
2018-02-14T22:21:12.915Z,17.07
2018-02-14T22:23:40.423Z,18.20
2018-02-14T22:26:07.903Z,18.13
2018-02-14T22:28:35.402Z,18.70
2018-02-14T22:31:03.660Z,17.80
2018-02-14T22:33:31.609Z,17.57
2018-02-14T22:35:59.094Z,16.70
2018-02-14T22:38:26.615Z,18.97
2018-02-14T22:40:54.862Z,18.30
2018-02-14T22:43:22.379Z,21.80
2018-02-14T22:45:49.871Z,17.93
2018-02-14T22:48:17.363Z,18.97
2018-02-14T22:50:44.871Z,19.63
2018-02-14T22:53:12.359Z,19.97
2018-02-14T22:55:39.866Z,19.43
2018-02-14T22:58:07.351Z,20.93
2018-02-14T23:00:34.860Z,20.80
2018-02-14T23:03:03.107Z,21.40
2018-02-14T23:05:30.610Z,20.90
2018-02-14T23:07:58.863Z,20.50
2018-02-14T23:10:26.364Z,20.80
2018-02-14T23:12:54.618Z,21.40
2018-02-14T23:15:22.127Z,20.60
2018-02-14T23:17:50.383Z,20.83
2018-02-14T23:20:17.882Z,22.00
2018-02-14T23:22:46.135Z,24.07
2018-02-14T23:25:13.647Z,21.80
2018-02-14T23:27:41.900Z,23.83
2018-02-14T23:30:13.217Z,22.57
2018-02-14T23:32:40.696Z,21.50
2018-02-14T23:35:08.199Z,23.20
2018-02-14T23:37:35.678Z,24.47
2018-02-14T23:40:03.193Z,22.93
2018-02-14T23:42:30.675Z,23.20
2018-02-14T23:44:58.179Z,22.90
2018-02-14T23:47:25.662Z,23.37
2018-02-14T23:49:53.162Z,22.00
2018-02-14T23:52:21.407Z,24.67
2018-02-14T23:54:48.911Z,23.37
2018-02-14T23:57:16.391Z,21.03
2018-02-14T23:59:44.667Z,23.27
